| time (UTC) | temp C | wind direction | speed KPH | gust KPH | rain 1hr cm | rain 24hr cm | rain mn cm | humidity % | barometer mb |
| 20260507065358 | 20 | 25 | 6.4 | 8.0 | 0.00 | 0.00 | 0.00 | 33 | 1017.4 |
| 20260507064855 | 20 | 28 | 6.4 | 8.0 | 0.00 | 0.00 | 0.00 | 32 | 1017.4 |
| 20260507064354 | 21 | 35 | 6.4 | 8.0 | 0.00 | 0.00 | 0.00 | 32 | 1017.2 |
| 20260507063851 | 21 | 42 | 6.4 | 9.7 | 0.00 | 0.00 | 0.00 | 32 | 1017.0 |
| 20260507063348 | 21 | 43 | 4.8 | 6.4 | 0.00 | 0.00 | 0.00 | 32 | 1017.1 |
| 20260507062845 | 21 | 38 | 6.4 | 6.4 | 0.00 | 0.00 | 0.00 | 31 | 1017.1 |
| 20260507062342 | 21 | 46 | 4.8 | 6.4 | 0.00 | 0.00 | 0.00 | 32 | 1017.3 |
| 20260507061840 | 22 | 15 | 4.8 | 4.8 | 0.00 | 0.00 | 0.00 | 31 | 1017.2 |
| 20260507061337 | 22 | 15 | 4.8 | 4.8 | 0.00 | 0.00 | 0.00 | 31 | 1017.3 |
| 20260507060836 | 22 | 13 | 3.2 | 4.8 | 0.00 | 0.00 | 0.00 | 30 | 1016.9 |
| 20260507060332 | 22 | 352 | 3.2 | 4.8 | 0.00 | 0.00 | 0.00 | 29 | 1016.8 |
| 20260507055829 | 22 | 341 | 4.8 | 6.4 | 0.00 | 0.00 | 0.00 | 29 | 1017.2 |
| 20260507055324 | 22 | 358 | 4.8 | 6.4 | 0.00 | 0.00 | 0.00 | 29 | 1016.8 |
| 20260507054821 | 22 | 3 | 3.2 | 4.8 | 0.00 | 0.00 | 0.00 | 29 | 1017.2 |
| 20260507054317 | 22 | 352 | 1.6 | 3.2 | 0.00 | 0.00 | 0.00 | 29 | 1017.2 |
| 20260507053814 | 23 | 343 | 3.2 | 4.8 | 0.00 | 0.00 | 0.00 | 29 | 1017.1 |
| 20260507053312 | 23 | 319 | 3.2 | 4.8 | 0.00 | 0.00 | 0.00 | 28 | 1017.0 |
| 20260507052811 | 22 | 6 | 1.6 | 3.2 | 0.00 | 0.00 | 0.00 | 29 | 1016.8 |
| 20260507052307 | 22 | 21 | 0.0 | 3.2 | 0.00 | 0.00 | 0.00 | 29 | 1017.1 |
| 20260507051805 | 22 | 352 | 1.6 | 3.2 | 0.00 | 0.00 | 0.00 | 29 | 1017.0 |
| 20260507051302 | 22 | 2 | 3.2 | 4.8 | 0.00 | 0.00 | 0.00 | 29 | 1017.0 |
| 20260507050759 | 22 | 11 | 3.2 | 3.2 | 0.00 | 0.00 | 0.00 | 29 | 1017.0 |
| 20260507050255 | 22 | 15 | 1.6 | 3.2 | 0.00 | 0.00 | 0.00 | 29 | 1017.1 |
| 20260507045752 | 23 | 358 | 1.6 | 3.2 | 0.00 | 0.00 | 0.00 | 28 | 1017.2 |
| 20260507045249 | 23 | 352 | 1.6 | 3.2 | 0.00 | 0.00 | 0.00 | 28 | 1017.0 |
| 20260507044746 | 23 | 352 | 0.0 | 3.2 | 0.00 | 0.00 | 0.00 | 28 | 1016.6 |
| 20260507044242 | 23 | 352 | 1.6 | 3.2 | 0.00 | 0.00 | 0.00 | 28 | 1017.0 |
| 20260507043738 | 23 | 352 | 0.0 | 1.6 | 0.00 | 0.00 | 0.00 | 28 | 1016.9 |
| 20260507043235 | 23 | 344 | 0.0 | 1.6 | 0.00 | 0.00 | 0.00 | 28 | 1016.7 |
| 20260507042731 | 23 | 337 | 1.6 | 3.2 | 0.00 | 0.00 | 0.00 | 28 | 1016.6 |
| 20260507042226 | 23 | 337 | 1.6 | 3.2 | 0.00 | 0.00 | 0.00 | 28 | 1016.7 |
| 20260507041724 | 23 | 352 | 1.6 | 4.8 | 0.00 | 0.00 | 0.00 | 28 | 1016.7 |
| 20260507041220 | 24 | 311 | 3.2 | 3.2 | 0.00 | 0.00 | 0.00 | 27 | 1016.5 |
| 20260507040717 | 24 | 298 | 1.6 | 3.2 | 0.00 | 0.00 | 0.00 | 26 | 1016.7 |
| 20260507040213 | 24 | 332 | 0.0 | 3.2 | 0.00 | 0.00 | 0.00 | 26 | 1016.3 |
| 20260507035710 | 24 | 332 | 0.0 | 1.6 | 0.00 | 0.00 | 0.00 | 26 | 1016.5 |
| 20260507035205 | 25 | 329 | 0.0 | 4.8 | 0.00 | 0.00 | 0.00 | 26 | 1016.2 |
| 20260507034702 | 25 | 265 | 4.8 | 8.0 | 0.00 | 0.00 | 0.00 | 26 | 1016.4 |
| 20260507034200 | 25 | 296 | 3.2 | 4.8 | 0.00 | 0.00 | 0.00 | 26 | 1016.3 |
| 20260507033658 | 25 | 287 | 3.2 | 4.8 | 0.00 | 0.00 | 0.00 | 26 | 1016.4 |
| 20260507033155 | 25 | 286 | 3.2 | 4.8 | 0.00 | 0.00 | 0.00 | 26 | 1016.0 |
| 20260507032653 | 25 | 311 | 0.0 | 4.8 | 0.00 | 0.00 | 0.00 | 25 | 1016.2 |
| 20260507032148 | 25 | 243 | 1.6 | 4.8 | 0.00 | 0.00 | 0.00 | 25 | 1016.1 |
| 20260507031645 | 25 | 269 | 1.6 | 4.8 | 0.00 | 0.00 | 0.00 | 25 | 1016.0 |
| 20260507031142 | 25 | 256 | 4.8 | 4.8 | 0.00 | 0.00 | 0.00 | 25 | 1015.8 |
| 20260507030639 | 25 | 262 | 3.2 | 9.7 | 0.00 | 0.00 | 0.00 | 25 | 1015.7 |
| 20260507030137 | 25 | 238 | 4.8 | 8.0 | 0.00 | 0.00 | 0.00 | 25 | 1015.5 |
| 20260507025634 | 25 | 277 | 1.6 | 6.4 | 0.00 | 0.00 | 0.00 | 25 | 1015.5 |
| 20260507025130 | 25 | 279 | 4.8 | 11.3 | 0.00 | 0.00 | 0.00 | 25 | 1015.5 |
| 20260507024628 | 25 | 246 | 6.4 | 11.3 | 0.00 | 0.00 | 0.00 | 25 | 1015.2 |
| 20260507024125 | 26 | 266 | 4.8 | 8.0 | 0.00 | 0.00 | 0.00 | 25 | 1015.5 |
| 20260507023621 | 26 | 264 | 12.9 | 12.9 | 0.00 | 0.00 | 0.00 | 25 | 1015.1 |
| 20260507023119 | 26 | 287 | 6.4 | 9.7 | 0.00 | 0.00 | 0.00 | 25 | 1015.3 |
| 20260507022615 | 26 | 234 | 6.4 | 9.7 | 0.00 | 0.00 | 0.00 | 25 | 1015.2 |
| 20260507022110 | 26 | 235 | 4.8 | 11.3 | 0.00 | 0.00 | 0.00 | 25 | 1015.0 |
| 20260507021607 | 26 | 275 | 3.2 | 8.0 | 0.00 | 0.00 | 0.00 | 25 | 1015.2 |
| 20260507021103 | 26 | 235 | 3.2 | 12.9 | 0.00 | 0.00 | 0.00 | 24 | 1015.1 |
| 20260507020602 | 26 | 167 | 4.8 | 9.7 | 0.00 | 0.00 | 0.00 | 24 | 1015.6 |
| 20260507020057 | 26 | 231 | 6.4 | 14.5 | 0.00 | 0.00 | 0.00 | 24 | 1015.0 |
| 20260507015556 | 26 | 257 | 6.4 | 11.3 | 0.00 | 0.00 | 0.00 | 24 | 1015.1 |
| 20260507015053 | 26 | 357 | 3.2 | 11.3 | 0.00 | 0.00 | 0.00 | 24 | 1014.8 |
| 20260507014550 | 27 | 262 | 8.0 | 8.0 | 0.00 | 0.00 | 0.00 | 23 | 1015.0 |
| 20260507014045 | 27 | 267 | 3.2 | 8.0 | 0.00 | 0.00 | 0.00 | 23 | 1015.1 |
| 20260507013542 | 27 | 293 | 4.8 | 12.9 | 0.00 | 0.00 | 0.00 | 23 | 1014.8 |
| 20260507013039 | 27 | 270 | 3.2 | 11.3 | 0.00 | 0.00 | 0.00 | 23 | 1015.0 |
| 20260507012537 | 27 | 236 | 8.0 | 11.3 | 0.00 | 0.00 | 0.00 | 23 | 1014.8 |
| 20260507012032 | 27 | 281 | 9.7 | 17.7 | 0.00 | 0.00 | 0.00 | 23 | 1014.9 |
| 20260507011530 | 27 | 253 | 6.4 | 14.5 | 0.00 | 0.00 | 0.00 | 24 | 1014.8 |
| 20260507011026 | 27 | 268 | 8.0 | 9.7 | 0.00 | 0.00 | 0.00 | 23 | 1014.9 |
| 20260507010521 | 27 | 263 | 14.5 | 17.7 | 0.00 | 0.00 | 0.00 | 23 | 1015.1 |
| 20260507010017 | 27 | 213 | 3.2 | 16.1 | 0.00 | 0.00 | 0.00 | 24 | 1015.0 |
| 20260507005515 | 27 | 254 | 9.7 | 20.9 | 0.00 | 0.00 | 0.00 | 23 | 1014.9 |
| 20260507005011 | 27 | 290 | 9.7 | 9.7 | 0.00 | 0.00 | 0.00 | 23 | 1014.9 |
| 20260507004508 | 27 | 262 | 11.3 | 14.5 | 0.00 | 0.00 | 0.00 | 23 | 1014.8 |
| 20260507004006 | 27 | 281 | 11.3 | 16.1 | 0.00 | 0.00 | 0.00 | 23 | 1015.1 |
| 20260507003501 | 27 | 262 | 1.6 | 8.0 | 0.00 | 0.00 | 0.00 | 23 | 1015.0 |
| 20260507002955 | 27 | 260 | 8.0 | 22.5 | 0.00 | 0.00 | 0.00 | 23 | 1015.0 |
| 20260507002453 | 27 | 272 | 9.7 | 19.3 | 0.00 | 0.00 | 0.00 | 23 | 1014.9 |
| 20260507001950 | 27 | 253 | 1.6 | 4.8 | 0.00 | 0.00 | 0.00 | 23 | 1014.9 |
| 20260507001446 | 27 | 217 | 3.2 | 11.3 | 0.00 | 0.00 | 0.00 | 23 | 1014.7 |
| 20260507000944 | 27 | 179 | 0.0 | 8.0 | 0.00 | 0.00 | 0.00 | 23 | 1014.8 |
| 20260507000439 | 27 | 249 | 9.7 | 14.5 | 0.00 | 0.00 | 0.00 | 23 | 1014.7 |
| 20260506235935 | 27 | 269 | 14.5 | 20.9 | 0.00 | 0.00 | 0.00 | 23 | 1014.9 |
| 20260506235432 | 27 | 269 | 17.7 | 19.3 | 0.00 | 0.00 | 0.00 | 23 | 1014.7 |
| 20260506234927 | 28 | 270 | 9.7 | 9.7 | 0.00 | 0.00 | 0.00 | 23 | 1014.9 |
| 20260506234426 | 27 | 286 | 3.2 | 11.3 | 0.00 | 0.00 | 0.00 | 23 | 1014.7 |
| 20260506233923 | 27 | 257 | 12.9 | 17.7 | 0.00 | 0.00 | 0.00 | 23 | 1014.7 |
| 20260506233420 | 28 | 280 | 9.7 | 11.3 | 0.00 | 0.00 | 0.00 | 22 | 1015.0 |
| 20260506232916 | 27 | 293 | 4.8 | 8.0 | 0.00 | 0.00 | 0.00 | 23 | 1015.0 |
| 20260506232413 | 27 | 222 | 9.7 | 14.5 | 0.00 | 0.00 | 0.00 | 23 | 1014.9 |
| 20260506231908 | 27 | 274 | 8.0 | 16.1 | 0.00 | 0.00 | 0.00 | 23 | 1015.1 |
| 20260506231406 | 27 | 221 | 4.8 | 11.3 | 0.00 | 0.00 | 0.00 | 23 | 1015.2 |
| 20260506230903 | 27 | 305 | 9.7 | 19.3 | 0.00 | 0.00 | 0.00 | 23 | 1015.1 |
| 20260506230400 | 26 | 289 | 3.2 | 16.1 | 0.00 | 0.00 | 0.00 | 23 | 1015.2 |
| 20260506225856 | 26 | 93 | 8.0 | 14.5 | 0.00 | 0.00 | 0.00 | 23 | 1015.3 |
| 20260506225353 | 27 | 333 | 9.7 | 14.5 | 0.00 | 0.00 | 0.00 | 23 | 1015.1 |
| 20260506224850 | 27 | 283 | 11.3 | 16.1 | 0.00 | 0.00 | 0.00 | 23 | 1015.3 |
| 20260506224348 | 27 | 3 | 6.4 | 9.7 | 0.00 | 0.00 | 0.00 | 23 | 1015.5 |
| 20260506223844 | 27 | 230 | 9.7 | 16.1 | 0.00 | 0.00 | 0.00 | 23 | 1015.3 |
| 20260506223339 | 27 | 251 | 11.3 | 27.4 | 0.00 | 0.00 | 0.00 | 23 | 1015.6 |
| 20260506222836 | 27 | 268 | 12.9 | 24.1 | 0.00 | 0.00 | 0.00 | 23 | 1015.6 |
| 20260506222332 | 26 | 346 | 12.9 | 19.3 | 0.00 | 0.00 | 0.00 | 24 | 1015.7 |
| 20260506221830 | 27 | 317 | 22.5 | 22.5 | 0.00 | 0.00 | 0.00 | 23 | 1015.8 |
| 20260506221327 | 27 | 287 | 3.2 | 8.0 | 0.00 | 0.00 | 0.00 | 23 | 1015.8 |
| 20260506220825 | 26 | 173 | 12.9 | 20.9 | 0.00 | 0.00 | 0.00 | 24 | 1015.8 |
| 20260506220320 | 27 | 333 | 3.2 | 14.5 | 0.00 | 0.00 | 0.00 | 24 | 1016.0 |
| 20260506215817 | 26 | 222 | 4.8 | 12.9 | 0.00 | 0.00 | 0.00 | 24 | 1016.0 |
| 20260506215313 | 26 | 115 | 3.2 | 14.5 | 0.00 | 0.00 | 0.00 | 24 | 1016.0 |
| 20260506214809 | 26 | 262 | 3.2 | 11.3 | 0.00 | 0.00 | 0.00 | 24 | 1016.2 |
| 20260506214306 | 26 | 157 | 12.9 | 17.7 | 0.00 | 0.00 | 0.00 | 24 | 1016.2 |
| 20260506213804 | 26 | 160 | 3.2 | 9.7 | 0.00 | 0.00 | 0.00 | 24 | 1016.2 |
| 20260506213300 | 26 | 140 | 4.8 | 11.3 | 0.00 | 0.00 | 0.00 | 24 | 1016.4 |
| 20260506212758 | 26 | 306 | 8.0 | 12.9 | 0.00 | 0.00 | 0.00 | 24 | 1016.7 |
| 20260506212254 | 26 | 313 | 11.3 | 20.9 | 0.00 | 0.00 | 0.00 | 25 | 1016.3 |
| 20260506211749 | 26 | 142 | 6.4 | 9.7 | 0.00 | 0.00 | 0.00 | 24 | 1016.6 |
| 20260506211246 | 26 | 39 | 4.8 | 8.0 | 0.00 | 0.00 | 0.00 | 24 | 1016.9 |
| 20260506210743 | 25 | 317 | 9.7 | 14.5 | 0.00 | 0.00 | 0.00 | 25 | 1016.9 |
| 20260506210239 | 25 | 316 | 6.4 | 14.5 | 0.00 | 0.00 | 0.00 | 25 | 1017.0 |
| 20260506205736 | 25 | 258 | 16.1 | 19.3 | 0.00 | 0.00 | 0.00 | 25 | 1016.9 |
| 20260506205232 | 26 | 184 | 11.3 | 12.9 | 0.00 | 0.00 | 0.00 | 25 | 1017.1 |
| 20260506204729 | 25 | 101 | 0.0 | 11.3 | 0.00 | 0.00 | 0.00 | 26 | 1017.2 |
| 20260506204226 | 25 | 316 | 6.4 | 32.2 | 0.00 | 0.00 | 0.00 | 26 | 1017.2 |
| 20260506203725 | 26 | 340 | 3.2 | 6.4 | 0.00 | 0.00 | 0.00 | 25 | 1017.2 |
| 20260506203221 | 25 | 166 | 4.8 | 11.3 | 0.00 | 0.00 | 0.00 | 26 | 1017.4 |
| 20260506202719 | 26 | 185 | 8.0 | 12.9 | 0.00 | 0.00 | 0.00 | 25 | 1017.4 |
| 20260506202215 | 25 | 223 | 12.9 | 12.9 | 0.00 | 0.00 | 0.00 | 26 | 1017.5 |
| 20260506201712 | 25 | 278 | 9.7 | 17.7 | 0.00 | 0.00 | 0.00 | 26 | 1017.5 |
| 20260506201209 | 25 | 328 | 8.0 | 20.9 | 0.00 | 0.00 | 0.00 | 26 | 1017.3 |
| 20260506200706 | 24 | 4 | 6.4 | 14.5 | 0.00 | 0.00 | 0.00 | 26 | 1017.5 |
| 20260506200203 | 25 | 307 | 0.0 | 11.3 | 0.00 | 0.00 | 0.00 | 26 | 1017.7 |
| 20260506195659 | 25 | 181 | 11.3 | 11.3 | 0.00 | 0.00 | 0.00 | 25 | 1018.0 |
| 20260506195155 | 25 | 240 | 8.0 | 14.5 | 0.00 | 0.00 | 0.00 | 26 | 1017.6 |
| 20260506194653 | 23 | 9 | 6.4 | 14.5 | 0.00 | 0.00 | 0.00 | 27 | 1017.7 |
| 20260506194149 | 23 | 285 | 8.0 | 16.1 | 0.00 | 0.00 | 0.00 | 27 | 1017.9 |
| 20260506193647 | 24 | 267 | 12.9 | 19.3 | 0.00 | 0.00 | 0.00 | 27 | 1018.0 |
| 20260506193144 | 24 | 270 | 11.3 | 16.1 | 0.00 | 0.00 | 0.00 | 27 | 1017.9 |
| 20260506192640 | 23 | 11 | 6.4 | 11.3 | 0.00 | 0.00 | 0.00 | 27 | 1017.6 |
| 20260506192136 | 23 | 170 | 4.8 | 16.1 | 0.00 | 0.00 | 0.00 | 27 | 1018.1 |
| 20260506191634 | 24 | 245 | 11.3 | 19.3 | 0.00 | 0.00 | 0.00 | 26 | 1018.0 |
| 20260506191130 | 23 | 288 | 6.4 | 9.7 | 0.00 | 0.00 | 0.00 | 27 | 1018.2 |
| 20260506190627 | 23 | 229 | 4.8 | 11.3 | 0.00 | 0.00 | 0.00 | 28 | 1018.3 |
| 20260506190124 | 23 | 53 | 3.2 | 8.0 | 0.00 | 0.00 | 0.00 | 28 | 1018.2 |
| 20260506185621 | 23 | 311 | 14.5 | 16.1 | 0.00 | 0.00 | 0.00 | 28 | 1018.3 |
| 20260506185117 | 23 | 230 | 8.0 | 14.5 | 0.00 | 0.00 | 0.00 | 27 | 1018.3 |
| 20260506184614 | 23 | 9 | 9.7 | 20.9 | 0.00 | 0.00 | 0.00 | 28 | 1018.3 |
| 20260506184112 | 23 | 300 | 11.3 | 25.7 | 0.00 | 0.00 | 0.00 | 28 | 1018.3 |
| 20260506183608 | 23 | 267 | 11.3 | 11.3 | 0.00 | 0.00 | 0.00 | 28 | 1018.5 |
| 20260506183104 | 23 | 307 | 0.0 | 8.0 | 0.00 | 0.00 | 0.00 | 29 | 1018.4 |
| 20260506182602 | 23 | 119 | 3.2 | 14.5 | 0.00 | 0.00 | 0.00 | 29 | 1018.9 |
| 20260506182059 | 23 | 29 | 11.3 | 17.7 | 0.00 | 0.00 | 0.00 | 30 | 1018.8 |
| 20260506181557 | 22 | 267 | 8.0 | 16.1 | 0.00 | 0.00 | 0.00 | 29 | 1018.7 |
| 20260506181053 | 23 | 272 | 14.5 | 20.9 | 0.00 | 0.00 | 0.00 | 30 | 1018.9 |
| 20260506180550 | 23 | 301 | 11.3 | 17.7 | 0.00 | 0.00 | 0.00 | 30 | 1018.8 |
| 20260506180047 | 23 | 299 | 16.1 | 17.7 | 0.00 | 0.00 | 0.00 | 30 | 1018.8 |
| 20260506175543 | 22 | 288 | 11.3 | 16.1 | 0.00 | 0.00 | 0.00 | 31 | 1019.0 |
| 20260506175039 | 22 | 264 | 8.0 | 14.5 | 0.00 | 0.00 | 0.00 | 30 | 1018.8 |
| 20260506174538 | 23 | 188 | 4.8 | 19.3 | 0.00 | 0.00 | 0.00 | 30 | 1018.9 |
| 20260506174034 | 22 | 242 | 3.2 | 12.9 | 0.00 | 0.00 | 0.00 | 32 | 1019.2 |
| 20260506173532 | 22 | 262 | 3.2 | 9.7 | 0.00 | 0.00 | 0.00 | 32 | 1018.7 |
| 20260506173028 | 22 | 39 | 4.8 | 6.4 | 0.00 | 0.00 | 0.00 | 32 | 1018.9 |
| 20260506172526 | 21 | 333 | 8.0 | 12.9 | 0.00 | 0.00 | 0.00 | 33 | 1019.1 |
| 20260506172022 | 22 | 273 | 8.0 | 17.7 | 0.00 | 0.00 | 0.00 | 32 | 1018.9 |
| 20260506171519 | 22 | 322 | 3.2 | 17.7 | 0.00 | 0.00 | 0.00 | 33 | 1019.1 |
| 20260506171017 | 21 | 288 | 6.4 | 14.5 | 0.00 | 0.00 | 0.00 | 34 | 1018.8 |
| 20260506170514 | 21 | 294 | 9.7 | 20.9 | 0.00 | 0.00 | 0.00 | 33 | 1018.9 |
| 20260506170006 | 21 | 273 | 6.4 | 17.7 | 0.00 | 0.00 | 0.00 | 34 | 1019.2 |
| 20260506165504 | 22 | 169 | 4.8 | 6.4 | 0.00 | 0.00 | 0.00 | 33 | 1019.0 |
| 20260506165000 | 21 | 205 | 4.8 | 12.9 | 0.00 | 0.00 | 0.00 | 35 | 1018.6 |
| 20260506164457 | 21 | 276 | 8.0 | 9.7 | 0.00 | 0.00 | 0.00 | 34 | 1019.0 |
| 20260506163955 | 21 | 256 | 1.6 | 6.4 | 0.00 | 0.00 | 0.00 | 33 | 1018.8 |
| 20260506163449 | 21 | 319 | 11.3 | 14.5 | 0.00 | 0.00 | 0.00 | 34 | 1018.9 |
| 20260506162944 | 21 | 142 | 4.8 | 11.3 | 0.00 | 0.00 | 0.00 | 34 | 1018.8 |
| 20260506162442 | 20 | 202 | 4.8 | 9.7 | 0.00 | 0.00 | 0.00 | 35 | 1018.8 |
| 20260506161934 | 21 | 58 | 1.6 | 4.8 | 0.00 | 0.00 | 0.00 | 34 | 1018.8 |
| 20260506161432 | 20 | 277 | 0.0 | 4.8 | 0.00 | 0.00 | 0.00 | 36 | 1018.7 |
| 20260506160929 | 20 | 260 | 9.7 | 12.9 | 0.00 | 0.00 | 0.00 | 35 | 1018.6 |
| 20260506160426 | 20 | 175 | 0.0 | 11.3 | 0.00 | 0.00 | 0.00 | 35 | 1018.8 |
| 20260506155923 | 20 | 104 | 4.8 | 12.9 | 0.00 | 0.00 | 0.00 | 36 | 1018.7 |
| 20260506155420 | 20 | 169 | 3.2 | 8.0 | 0.00 | 0.00 | 0.00 | 36 | 1018.6 |
| 20260506153543 | 20 | 204 | 3.2 | 8.0 | 0.00 | 0.00 | 0.00 | 37 | 1018.8 |
| 20260506153040 | 20 | 82 | 0.0 | 4.8 | 0.00 | 0.00 | 0.00 | 36 | 1018.7 |
| 20260506152537 | 20 | 223 | 3.2 | 4.8 | 0.00 | 0.00 | 0.00 | 37 | 1018.8 |
| 20260506152035 | 18 | 190 | 1.6 | 4.8 | 0.00 | 0.00 | 0.00 | 38 | 1018.8 |
| 20260506151532 | 19 | 326 | 0.0 | 4.8 | 0.00 | 0.00 | 0.00 | 38 | 1018.7 |
| 20260506151024 | 18 | 144 | 0.0 | 8.0 | 0.00 | 0.00 | 0.00 | 38 | 1018.9 |
| 20260506150520 | 19 | 185 | 4.8 | 8.0 | 0.00 | 0.00 | 0.00 | 38 | 1018.8 |
| 20260506150017 | 19 | 72 | 3.2 | 4.8 | 0.00 | 0.00 | 0.00 | 38 | 1018.8 |
| 20260506145514 | 18 | 106 | 3.2 | 3.2 | 0.00 | 0.00 | 0.00 | 39 | 1018.8 |
| 20260506145011 | 18 | 262 | 0.0 | 6.4 | 0.00 | 0.00 | 0.00 | 40 | 1018.8 |
| 20260506144508 | 17 | 262 | 1.6 | 4.8 | 0.00 | 0.00 | 0.00 | 40 | 1018.7 |
| 20260506144005 | 17 | 299 | 4.8 | 8.0 | 0.00 | 0.00 | 0.00 | 41 | 1018.9 |
| 20260506143502 | 17 | 278 | 4.8 | 6.4 | 0.00 | 0.00 | 0.00 | 40 | 1018.9 |
| 20260506143001 | 17 | 272 | 3.2 | 4.8 | 0.00 | 0.00 | 0.00 | 41 | 1018.6 |
| 20260506142458 | 17 | 352 | 0.0 | 3.2 | 0.00 | 0.00 | 0.00 | 41 | 1018.5 |
| 20260506141956 | 17 | 334 | 4.8 | 6.4 | 0.00 | 0.00 | 0.00 | 41 | 1018.8 |
| 20260506141454 | 18 | 28 | 3.2 | 3.2 | 0.00 | 0.00 | 0.00 | 41 | 1018.6 |
| 20260506140952 | 18 | 352 | 4.8 | 6.4 | 0.00 | 0.00 | 0.00 | 40 | 1018.6 |
| 20260506140449 | 19 | 25 | 4.8 | 6.4 | 0.00 | 0.00 | 0.00 | 40 | 1018.5 |
| 20260506135945 | 18 | 34 | 4.8 | 6.4 | 0.00 | 0.00 | 0.00 | 42 | 1018.5 |
| 20260506135443 | 18 | 52 | 4.8 | 4.8 | 0.00 | 0.00 | 0.00 | 41 | 1018.3 |
| 20260506134938 | 18 | 13 | 3.2 | 3.2 | 0.00 | 0.00 | 0.00 | 43 | 1018.1 |
| 20260506134435 | 17 | 41 | 3.2 | 3.2 | 0.00 | 0.00 | 0.00 | 44 | 1018.2 |
| 20260506133932 | 17 | 37 | 4.8 | 4.8 | 0.00 | 0.00 | 0.00 | 44 | 1018.0 |
| 20260506133429 | 17 | 22 | 3.2 | 4.8 | 0.00 | 0.00 | 0.00 | 45 | 1017.9 |
| 20260506132926 | 16 | 63 | 4.8 | 4.8 | 0.00 | 0.00 | 0.00 | 46 | 1017.9 |
| 20260506132423 | 15 | 57 | 3.2 | 6.4 | 0.00 | 0.00 | 0.00 | 48 | 1017.7 |
| 20260506131920 | 15 | 61 | 4.8 | 8.0 | 0.00 | 0.00 | 0.00 | 48 | 1017.9 |
| 20260506131417 | 15 | 51 | 6.4 | 8.0 | 0.00 | 0.00 | 0.00 | 48 | 1017.7 |
| 20260506130914 | 14 | 33 | 6.4 | 8.0 | 0.00 | 0.00 | 0.00 | 50 | 1017.7 |
| 20260506130410 | 14 | 43 | 6.4 | 6.4 | 0.00 | 0.00 | 0.00 | 50 | 1017.9 |
| 20260506125908 | 15 | 27 | 4.8 | 6.4 | 0.00 | 0.00 | 0.00 | 49 | 1017.6 |
| 20260506125406 | 13 | 21 | 4.8 | 6.4 | 0.00 | 0.00 | 0.00 | 51 | 1017.2 |
| 20260506124904 | 13 | 16 | 4.8 | 6.4 | 0.00 | 0.00 | 0.00 | 53 | 1017.3 |
| 20260506124401 | 13 | 22 | 6.4 | 6.4 | 0.00 | 0.00 | 0.00 | 52 | 1017.2 |
| 20260506123859 | 13 | 14 | 3.2 | 4.8 | 0.00 | 0.00 | 0.00 | 52 | 1017.3 |
| 20260506123357 | 13 | 6 | 3.2 | 3.2 | 0.00 | 0.00 | 0.00 | 52 | 1017.1 |
| 20260506122854 | 13 | 352 | 0.0 | 3.2 | 0.00 | 0.00 | 0.00 | 51 | 1017.1 |
| 20260506122350 | 14 | 345 | 1.6 | 3.2 | 0.00 | 0.00 | 0.00 | 50 | 1016.9 |
| 20260506121849 | 14 | 352 | 0.0 | 1.6 | 0.00 | 0.00 | 0.00 | 49 | 1017.1 |
| 20260506121346 | 15 | 101 | 3.2 | 4.8 | 0.00 | 0.00 | 0.00 | 48 | 1017.0 |
| 20260506120843 | 14 | 78 | 4.8 | 4.8 | 0.00 | 0.00 | 0.00 | 49 | 1017.1 |
| 20260506120340 | 14 | 46 | 4.8 | 6.4 | 0.00 | 0.00 | 0.00 | 50 | 1016.9 |
| 20260506115837 | 13 | 39 | 4.8 | 6.4 | 0.00 | 0.00 | 0.00 | 51 | 1016.8 |
| 20260506115336 | 14 | 82 | 1.6 | 3.2 | 0.00 | 0.00 | 0.00 | 49 | 1017.1 |
| 20260506114834 | 13 | 61 | 1.6 | 3.2 | 0.00 | 0.00 | 0.00 | 50 | 1016.7 |
| 20260506114331 | 14 | 94 | 3.2 | 4.8 | 0.00 | 0.00 | 0.00 | 48 | 1016.9 |
| 20260506113830 | 13 | 178 | 1.6 | 1.6 | 0.00 | 0.00 | 0.00 | 50 | 1016.7 |
| 20260506113326 | 14 | 39 | 4.8 | 4.8 | 0.00 | 0.00 | 0.00 | 49 | 1016.9 |
| 20260506112823 | 14 | 39 | 4.8 | 4.8 | 0.00 | 0.00 | 0.00 | 49 | 1016.7 |
| 20260506112320 | 14 | 60 | 3.2 | 4.8 | 0.00 | 0.00 | 0.00 | 50 | 1017.0 |
| 20260506111818 | 14 | 74 | 3.2 | 4.8 | 0.00 | 0.00 | 0.00 | 50 | 1016.7 |
| 20260506111316 | 14 | 73 | 3.2 | 4.8 | 0.00 | 0.00 | 0.00 | 49 | 1016.7 |
| 20260506110813 | 14 | 13 | 4.8 | 6.4 | 0.00 | 0.00 | 0.00 | 49 | 1016.7 |
| 20260506110310 | 15 | 86 | 4.8 | 4.8 | 0.00 | 0.00 | 0.00 | 48 | 1016.8 |
| 20260506105806 | 15 | 53 | 3.2 | 4.8 | 0.00 | 0.00 | 0.00 | 48 | 1016.6 |
| 20260506105305 | 15 | 42 | 4.8 | 4.8 | 0.00 | 0.00 | 0.00 | 48 | 1016.5 |
| 20260506104801 | 15 | 59 | 3.2 | 3.2 | 0.00 | 0.00 | 0.00 | 48 | 1016.5 |
| 20260506104258 | 15 | 79 | 4.8 | 6.4 | 0.00 | 0.00 | 0.00 | 46 | 1016.5 |
| 20260506103756 | 15 | 65 | 4.8 | 6.4 | 0.00 | 0.00 | 0.00 | 45 | 1016.5 |
| 20260506103253 | 15 | 43 | 4.8 | 4.8 | 0.00 | 0.00 | 0.00 | 45 | 1016.5 |
| 20260506102750 | 16 | 34 | 4.8 | 4.8 | 0.00 | 0.00 | 0.00 | 43 | 1016.6 |
| 20260506102248 | 16 | 45 | 3.2 | 4.8 | 0.00 | 0.00 | 0.00 | 43 | 1016.4 |
| 20260506101745 | 16 | 10 | 6.4 | 6.4 | 0.00 | 0.00 | 0.00 | 43 | 1016.4 |
| 20260506101241 | 16 | 8 | 4.8 | 6.4 | 0.00 | 0.00 | 0.00 | 43 | 1016.6 |
| 20260506100740 | 16 | 358 | 4.8 | 6.4 | 0.00 | 0.00 | 0.00 | 43 | 1016.2 |
| 20260506100237 | 16 | 13 | 4.8 | 6.4 | 0.00 | 0.00 | 0.00 | 44 | 1016.2 |
| 20260506095736 | 16 | 8 | 4.8 | 6.4 | 0.00 | 0.00 | 0.00 | 43 | 1016.3 |
| 20260506095232 | 16 | 13 | 4.8 | 4.8 | 0.00 | 0.00 | 0.00 | 44 | 1016.2 |
| 20260506094729 | 16 | 11 | 4.8 | 6.4 | 0.00 | 0.00 | 0.00 | 44 | 1016.3 |
| 20260506094227 | 15 | 15 | 4.8 | 6.4 | 0.00 | 0.00 | 0.00 | 44 | 1016.3 |
| 20260506093726 | 15 | 24 | 4.8 | 6.4 | 0.00 | 0.00 | 0.00 | 45 | 1016.5 |
| 20260506093222 | 15 | 45 | 6.4 | 8.0 | 0.00 | 0.00 | 0.00 | 45 | 1016.5 |
| 20260506092720 | 15 | 30 | 6.4 | 8.0 | 0.00 | 0.00 | 0.00 | 45 | 1016.4 |
| 20260506092218 | 15 | 29 | 4.8 | 4.8 | 0.00 | 0.00 | 0.00 | 47 | 1016.2 |
| 20260506091715 | 15 | 43 | 3.2 | 4.8 | 0.00 | 0.00 | 0.00 | 48 | 1016.3 |
| 20260506091212 | 15 | 18 | 3.2 | 6.4 | 0.00 | 0.00 | 0.00 | 49 | 1016.3 |
| 20260506090710 | 16 | 7 | 6.4 | 8.0 | 0.00 | 0.00 | 0.00 | 48 | 1016.4 |
| 20260506090206 | 16 | 18 | 4.8 | 6.4 | 0.00 | 0.00 | 0.00 | 46 | 1016.3 |
| 20260506085704 | 16 | 17 | 8.0 | 8.0 | 0.00 | 0.00 | 0.00 | 45 | 1016.2 |
| 20260506085159 | 16 | 25 | 6.4 | 8.0 | 0.00 | 0.00 | 0.00 | 45 | 1016.2 |
| 20260506084657 | 16 | 20 | 4.8 | 6.4 | 0.00 | 0.00 | 0.00 | 46 | 1016.1 |
| 20260506084153 | 16 | 40 | 3.2 | 4.8 | 0.00 | 0.00 | 0.00 | 44 | 1016.0 |
| 20260506083650 | 16 | 28 | 3.2 | 4.8 | 0.00 | 0.00 | 0.00 | 45 | 1016.1 |
| 20260506083148 | 16 | 24 | 3.2 | 6.4 | 0.00 | 0.00 | 0.00 | 45 | 1015.9 |
| 20260506082644 | 16 | 10 | 3.2 | 3.2 | 0.00 | 0.00 | 0.00 | 43 | 1016.1 |
| 20260506082139 | 16 | 32 | 0.0 | 3.2 | 0.00 | 0.00 | 0.00 | 43 | 1016.0 |
| 20260506081638 | 17 | 30 | 3.2 | 4.8 | 0.00 | 0.00 | 0.00 | 42 | 1016.0 |
| 20260506081135 | 16 | 16 | 4.8 | 6.4 | 0.00 | 0.00 | 0.00 | 46 | 1016.1 |
| 20260506080633 | 16 | 4 | 4.8 | 6.4 | 0.00 | 0.00 | 0.00 | 44 | 1016.0 |
| 20260506080129 | 17 | 18 | 3.2 | 4.8 | 0.00 | 0.00 | 0.00 | 42 | 1016.1 |
| 20260506073113 | 17 | 44 | 8.0 | 9.7 | 0.00 | 0.00 | 0.00 | 40 | 1016.0 |
| 20260506072609 | 17 | 23 | 4.8 | 8.0 | 0.00 | 0.00 | 0.00 | 41 | 1015.8 |
| 20260506072108 | 17 | 26 | 8.0 | 8.0 | 0.00 | 0.00 | 0.00 | 40 | 1016.1 |
| 20260506071605 | 18 | 312 | 3.2 | 3.2 | 0.00 | 0.00 | 0.00 | 39 | 1015.9 |
| 20260506071103 | 18 | 7 | 1.6 | 3.2 | 0.00 | 0.00 | 0.00 | 39 | 1016.1 |
| 20260506070600 | 18 | 262 | 1.6 | 3.2 | 0.00 | 0.00 | 0.00 | 39 | 1016.0 |